aviador You're here:

KDET Decoded Metar

DETROIT in MI, USA
Report Time2017-04-30 14:41:00
UTC Time2017-04-30 14:55:38
Flight Rules mvfr MVFR
Wind080° at 10 kt
W.Decomp.*RWY 07: 9.7 kt HW 2.6 kt RCW
RWY 15: 4.2 kt HW 9.1 kt LCW
W.Rank080° ranks 30
Current wind is above 080° avg. (6.8)
Visibility9999 m
Phenomena:N/A
Clouds:Overcast 014 Hf
Expected CloudBase > 1,200 ft AGL from Temp-Dew spread
Ceiling1,400 ft
Temp09°C (ISA -5)
Dew Point06°C (82% RH)
AAT4.5°C
QNH1016 hPa
Density Alt82 ft
Elevation623 ft
Report Wrong Elevation
Raw Report
KDET 301441Z 08010KT 10SM OVC014 09/06 A3000=

Extra information for KDET:More info

Metar Taf Metar & Taf Last 4 Metars F.Rules Stats Wind Profile Meteogram Temp Stats Airport Information Weather charts Add Link Nearby VenuesMetar ALERT Operation Metar Decoded Social comments

AIRNAV info for KDET